sensor_id;sensor_type;location;lat;lon;timestamp;P1;durP1;ratioP1;P2;durP2;ratioP2
10009;SDS011;5044;48.652;9.250;2022-09-13T00:01:17;1.52;;;1.05;;
10009;SDS011;5044;48.652;9.250;2022-09-13T00:03:44;1.00;;;0.80;;
10009;SDS011;5044;48.652;9.250;2022-09-13T00:06:12;0.80;;;0.70;;
10009;SDS011;5044;48.652;9.250;2022-09-13T00:08:41;1.67;;;1.00;;
10009;SDS011;5044;48.652;9.250;2022-09-13T00:11:13;1.75;;;0.70;;
10009;SDS011;5044;48.652;9.250;2022-09-13T00:13:43;1.05;;;0.77;;
10009;SDS011;5044;48.652;9.250;2022-09-13T00:16:11;1.25;;;0.90;;
10009;SDS011;5044;48.652;9.250;2022-09-13T00:18:40;2.17;;;1.00;;
10009;SDS011;5044;48.652;9.250;2022-09-13T00:21:08;1.27;;;1.10;;
10009;SDS011;5044;48.652;9.250;2022-09-13T00:23:36;2.13;;;1.00;;
10009;SDS011;5044;48.652;9.250;2022-09-13T00:26:05;3.10;;;1.35;;
10009;SDS011;5044;48.652;9.250;2022-09-13T00:28:33;0.93;;;0.80;;
10009;SDS011;5044;48.652;9.250;2022-09-13T00:31:03;1.10;;;0.73;;
10009;SDS011;5044;48.652;9.250;2022-09-13T00:33:31;1.47;;;1.30;;
10009;SDS011;5044;48.652;9.250;2022-09-13T00:35:57;2.80;;;0.90;;
10009;SDS011;5044;48.652;9.250;2022-09-13T00:38:28;4.10;;;1.20;;
10009;SDS011;5044;48.652;9.250;2022-09-13T00:40:54;0.80;;;0.80;;
10009;SDS011;5044;48.652;9.250;2022-09-13T00:46:07;1.02;;;0.77;;
10009;SDS011;5044;48.652;9.250;2022-09-13T00:48:35;3.72;;;0.90;;
10009;SDS011;5044;48.652;9.250;2022-09-13T00:51:03;3.75;;;1.10;;
10009;SDS011;5044;48.652;9.250;2022-09-13T00:53:34;1.65;;;0.90;;
10009;SDS011;5044;48.652;9.250;2022-09-13T00:56:05;1.97;;;1.63;;
10009;SDS011;5044;48.652;9.250;2022-09-13T00:58:36;1.85;;;1.20;;
10009;SDS011;5044;48.652;9.250;2022-09-13T01:01:09;2.28;;;0.95;;
10009;SDS011;5044;48.652;9.250;2022-09-13T01:03:38;1.30;;;0.85;;
10009;SDS011;5044;48.652;9.250;2022-09-13T01:06:07;1.10;;;0.80;;
10009;SDS011;5044;48.652;9.250;2022-09-13T01:08:36;1.42;;;0.95;;
10009;SDS011;5044;48.652;9.250;2022-09-13T01:11:05;1.35;;;0.95;;
10009;SDS011;5044;48.652;9.250;2022-09-13T01:13:37;0.90;;;0.80;;
10009;SDS011;5044;48.652;9.250;2022-09-13T01:16:05;0.88;;;0.82;;
10009;SDS011;5044;48.652;9.250;2022-09-13T01:18:33;2.92;;;0.80;;
10009;SDS011;5044;48.652;9.250;2022-09-13T01:21:10;0.95;;;0.80;;
10009;SDS011;5044;48.652;9.250;2022-09-13T01:24:12;0.98;;;0.73;;
10009;SDS011;5044;48.652;9.250;2022-09-13T01:27:14;1.45;;;0.80;;
10009;SDS011;5044;48.652;9.250;2022-09-13T01:32:49;1.02;;;0.93;;
10009;SDS011;5044;48.652;9.250;2022-09-13T01:35:49;0.70;;;0.63;;
10009;SDS011;5044;48.652;9.250;2022-09-13T01:38:38;1.40;;;0.98;;
10009;SDS011;5044;48.652;9.250;2022-09-13T01:41:15;1.00;;;0.90;;
10009;SDS011;5044;48.652;9.250;2022-09-13T01:44:03;1.40;;;0.93;;
10009;SDS011;5044;48.652;9.250;2022-09-13T01:46:45;1.00;;;0.90;;
10009;SDS011;5044;48.652;9.250;2022-09-13T01:49:18;3.38;;;1.13;;
10009;SDS011;5044;48.652;9.250;2022-09-13T01:51:53;1.13;;;0.90;;
10009;SDS011;5044;48.652;9.250;2022-09-13T01:54:27;2.65;;;1.00;;
10009;SDS011;5044;48.652;9.250;2022-09-13T01:57:02;3.03;;;0.90;;
10009;SDS011;5044;48.652;9.250;2022-09-13T01:59:35;1.00;;;0.90;;
10009;SDS011;5044;48.652;9.250;2022-09-13T02:02:07;1.05;;;0.93;;
10009;SDS011;5044;48.652;9.250;2022-09-13T02:04:38;1.33;;;0.98;;
10009;SDS011;5044;48.652;9.250;2022-09-13T02:07:09;0.73;;;0.63;;
10009;SDS011;5044;48.652;9.250;2022-09-13T02:09:40;1.10;;;1.00;;
10009;SDS011;5044;48.652;9.250;2022-09-13T02:12:14;1.55;;;1.00;;
10009;SDS011;5044;48.652;9.250;2022-09-13T02:14:50;1.23;;;1.00;;
10009;SDS011;5044;48.652;9.250;2022-09-13T02:17:23;5.25;;;1.17;;
10009;SDS011;5044;48.652;9.250;2022-09-13T02:19:54;1.13;;;0.93;;
10009;SDS011;5044;48.652;9.250;2022-09-13T02:22:24;0.80;;;0.73;;
10009;SDS011;5044;48.652;9.250;2022-09-13T02:24:57;1.05;;;0.80;;
10009;SDS011;5044;48.652;9.250;2022-09-13T02:27:27;3.67;;;0.80;;
10009;SDS011;5044;48.652;9.250;2022-09-13T02:30:00;1.40;;;1.08;;
10009;SDS011;5044;48.652;9.250;2022-09-13T02:32:31;4.57;;;1.00;;
10009;SDS011;5044;48.652;9.250;2022-09-13T02:35:02;1.20;;;1.02;;
10009;SDS011;5044;48.652;9.250;2022-09-13T02:37:31;1.52;;;1.05;;
10009;SDS011;5044;48.652;9.250;2022-09-13T02:40:02;2.80;;;1.05;;
10009;SDS011;5044;48.652;9.250;2022-09-13T02:42:33;3.20;;;1.20;;
10009;SDS011;5044;48.652;9.250;2022-09-13T02:45:05;1.13;;;1.00;;
10009;SDS011;5044;48.652;9.250;2022-09-13T02:47:37;4.00;;;1.02;;
10009;SDS011;5044;48.652;9.250;2022-09-13T02:53:00;1.17;;;1.00;;
10009;SDS011;5044;48.652;9.250;2022-09-13T02:55:31;0.90;;;0.68;;
10009;SDS011;5044;48.652;9.250;2022-09-13T02:58:08;1.30;;;0.82;;
10009;SDS011;5044;48.652;9.250;2022-09-13T03:00:37;1.20;;;1.02;;
10009;SDS011;5044;48.652;9.250;2022-09-13T03:03:07;4.00;;;0.88;;
10009;SDS011;5044;48.652;9.250;2022-09-13T03:05:37;1.42;;;0.93;;
10009;SDS011;5044;48.652;9.250;2022-09-13T03:08:04;3.70;;;1.23;;
10009;SDS011;5044;48.652;9.250;2022-09-13T03:10:36;1.88;;;1.23;;
10009;SDS011;5044;48.652;9.250;2022-09-13T03:16:17;2.75;;;1.30;;
10009;SDS011;5044;48.652;9.250;2022-09-13T03:19:00;1.40;;;0.80;;
10009;SDS011;5044;48.652;9.250;2022-09-13T03:21:43;1.63;;;0.82;;
10009;SDS011;5044;48.652;9.250;2022-09-13T03:24:25;1.90;;;1.30;;
10009;SDS011;5044;48.652;9.250;2022-09-13T03:27:02;1.65;;;1.10;;
10009;SDS011;5044;48.652;9.250;2022-09-13T03:29:36;1.67;;;1.20;;
10009;SDS011;5044;48.652;9.250;2022-09-13T03:32:15;2.25;;;1.30;;
10009;SDS011;5044;48.652;9.250;2022-09-13T03:34:52;1.23;;;1.08;;
10009;SDS011;5044;48.652;9.250;2022-09-13T03:37:28;6.05;;;0.98;;
10009;SDS011;5044;48.652;9.250;2022-09-13T03:40:02;1.02;;;0.90;;
10009;SDS011;5044;48.652;9.250;2022-09-13T03:42:36;1.80;;;1.25;;
10009;SDS011;5044;48.652;9.250;2022-09-13T03:45:09;1.15;;;1.05;;
10009;SDS011;5044;48.652;9.250;2022-09-13T03:47:39;4.22;;;1.95;;
10009;SDS011;5044;48.652;9.250;2022-09-13T03:50:13;1.83;;;1.10;;
10009;SDS011;5044;48.652;9.250;2022-09-13T03:52:43;1.80;;;1.20;;
10009;SDS011;5044;48.652;9.250;2022-09-13T03:55:12;1.73;;;1.00;;
10009;SDS011;5044;48.652;9.250;2022-09-13T03:57:39;6.63;;;1.50;;
10009;SDS011;5044;48.652;9.250;2022-09-13T04:00:06;1.67;;;1.10;;
10009;SDS011;5044;48.652;9.250;2022-09-13T04:02:34;2.13;;;1.45;;
10009;SDS011;5044;48.652;9.250;2022-09-13T04:05:00;1.60;;;1.13;;
10009;SDS011;5044;48.652;9.250;2022-09-13T04:07:29;1.63;;;1.35;;
10009;SDS011;5044;48.652;9.250;2022-09-13T04:09:56;1.80;;;0.90;;
10009;SDS011;5044;48.652;9.250;2022-09-13T04:12:23;2.20;;;1.52;;
10009;SDS011;5044;48.652;9.250;2022-09-13T04:14:51;4.03;;;1.30;;
10009;SDS011;5044;48.652;9.250;2022-09-13T04:17:18;2.00;;;1.55;;
10009;SDS011;5044;48.652;9.250;2022-09-13T04:19:45;1.30;;;0.80;;
10009;SDS011;5044;48.652;9.250;2022-09-13T04:22:12;1.45;;;1.30;;
10009;SDS011;5044;48.652;9.250;2022-09-13T04:24:40;1.90;;;1.17;;
10009;SDS011;5044;48.652;9.250;2022-09-13T04:27:08;1.27;;;1.10;;
10009;SDS011;5044;48.652;9.250;2022-09-13T04:29:36;1.65;;;1.00;;
10009;SDS011;5044;48.652;9.250;2022-09-13T04:49:23;2.15;;;1.15;;
10009;SDS011;5044;48.652;9.250;2022-09-13T04:51:50;2.45;;;1.33;;
10009;SDS011;5044;48.652;9.250;2022-09-13T04:54:17;2.10;;;1.60;;
10009;SDS011;5044;48.652;9.250;2022-09-13T04:56:44;1.67;;;1.05;;
10009;SDS011;5044;48.652;9.250;2022-09-13T04:59:11;2.70;;;1.23;;
10009;SDS011;5044;48.652;9.250;2022-09-13T05:01:38;1.60;;;1.10;;
10009;SDS011;5044;48.652;9.250;2022-09-13T05:04:06;2.60;;;1.67;;
10009;SDS011;5044;48.652;9.250;2022-09-13T05:06:35;1.17;;;0.90;;
10009;SDS011;5044;48.652;9.250;2022-09-13T05:09:02;2.63;;;1.20;;
10009;SDS011;5044;48.652;9.250;2022-09-13T05:11:30;2.03;;;1.10;;
10009;SDS011;5044;48.652;9.250;2022-09-13T05:13:58;2.60;;;1.80;;
10009;SDS011;5044;48.652;9.250;2022-09-13T05:16:28;3.08;;;1.30;;
10009;SDS011;5044;48.652;9.250;2022-09-13T05:18:57;1.75;;;1.25;;
10009;SDS011;5044;48.652;9.250;2022-09-13T05:21:24;1.08;;;0.98;;
10009;SDS011;5044;48.652;9.250;2022-09-13T05:23:53;1.92;;;1.20;;
10009;SDS011;5044;48.652;9.250;2022-09-13T05:26:21;2.58;;;1.75;;
10009;SDS011;5044;48.652;9.250;2022-09-13T05:28:50;1.85;;;1.25;;
10009;SDS011;5044;48.652;9.250;2022-09-13T05:31:18;2.70;;;1.52;;
10009;SDS011;5044;48.652;9.250;2022-09-13T05:33:52;1.40;;;1.30;;
10009;SDS011;5044;48.652;9.250;2022-09-13T05:36:20;2.47;;;1.40;;
10009;SDS011;5044;48.652;9.250;2022-09-13T05:38:47;5.28;;;1.55;;
10009;SDS011;5044;48.652;9.250;2022-09-13T05:41:15;2.50;;;1.50;;
10009;SDS011;5044;48.652;9.250;2022-09-13T05:43:42;2.85;;;1.52;;
10009;SDS011;5044;48.652;9.250;2022-09-13T05:46:10;3.10;;;1.27;;
10009;SDS011;5044;48.652;9.250;2022-09-13T05:48:38;2.33;;;1.60;;
10009;SDS011;5044;48.652;9.250;2022-09-13T05:51:06;2.95;;;1.80;;
10009;SDS011;5044;48.652;9.250;2022-09-13T05:53:35;2.28;;;1.90;;
10009;SDS011;5044;48.652;9.250;2022-09-13T05:56:03;4.40;;;2.13;;
10009;SDS011;5044;48.652;9.250;2022-09-13T05:58:33;5.22;;;1.73;;
10009;SDS011;5044;48.652;9.250;2022-09-13T06:01:00;1.80;;;1.60;;
10009;SDS011;5044;48.652;9.250;2022-09-13T06:03:27;2.67;;;1.50;;
10009;SDS011;5044;48.652;9.250;2022-09-13T06:05:54;1.10;;;1.00;;
10009;SDS011;5044;48.652;9.250;2022-09-13T06:08:21;3.67;;;1.50;;
10009;SDS011;5044;48.652;9.250;2022-09-13T06:10:52;1.98;;;1.77;;
10009;SDS011;5044;48.652;9.250;2022-09-13T06:13:21;4.60;;;1.42;;
10009;SDS011;5044;48.652;9.250;2022-09-13T06:15:50;5.30;;;1.80;;
10009;SDS011;5044;48.652;9.250;2022-09-13T06:18:17;8.55;;;2.25;;
10009;SDS011;5044;48.652;9.250;2022-09-13T06:20:44;3.97;;;2.22;;
10009;SDS011;5044;48.652;9.250;2022-09-13T06:23:11;4.97;;;2.58;;
10009;SDS011;5044;48.652;9.250;2022-09-13T06:25:39;5.00;;;2.00;;
10009;SDS011;5044;48.652;9.250;2022-09-13T06:28:06;4.15;;;2.03;;
10009;SDS011;5044;48.652;9.250;2022-09-13T06:30:33;5.20;;;1.80;;
10009;SDS011;5044;48.652;9.250;2022-09-13T06:33:01;2.22;;;1.38;;
10009;SDS011;5044;48.652;9.250;2022-09-13T06:35:28;3.30;;;1.80;;
10009;SDS011;5044;48.652;9.250;2022-09-13T06:37:55;5.70;;;2.28;;
10009;SDS011;5044;48.652;9.250;2022-09-13T06:40:23;2.95;;;1.77;;
10009;SDS011;5044;48.652;9.250;2022-09-13T06:42:50;2.33;;;1.65;;
10009;SDS011;5044;48.652;9.250;2022-09-13T06:45:17;3.47;;;1.75;;
10009;SDS011;5044;48.652;9.250;2022-09-13T06:47:44;2.72;;;1.83;;
10009;SDS011;5044;48.652;9.250;2022-09-13T06:50:12;4.75;;;2.67;;
10009;SDS011;5044;48.652;9.250;2022-09-13T06:52:39;2.65;;;1.70;;
10009;SDS011;5044;48.652;9.250;2022-09-13T06:55:06;2.95;;;1.90;;
10009;SDS011;5044;48.652;9.250;2022-09-13T06:57:35;4.78;;;1.65;;
10009;SDS011;5044;48.652;9.250;2022-09-13T07:00:03;2.55;;;1.50;;
10009;SDS011;5044;48.652;9.250;2022-09-13T07:02:35;1.90;;;1.42;;
10009;SDS011;5044;48.652;9.250;2022-09-13T07:05:29;2.05;;;1.40;;
10009;SDS011;5044;48.652;9.250;2022-09-13T07:07:58;1.77;;;1.30;;
10009;SDS011;5044;48.652;9.250;2022-09-13T07:10:33;4.75;;;1.95;;
10009;SDS011;5044;48.652;9.250;2022-09-13T07:13:05;5.22;;;1.67;;
10009;SDS011;5044;48.652;9.250;2022-09-13T07:15:35;1.95;;;1.70;;
10009;SDS011;5044;48.652;9.250;2022-09-13T07:18:03;2.30;;;1.52;;
10009;SDS011;5044;48.652;9.250;2022-09-13T07:20:33;3.63;;;1.67;;
10009;SDS011;5044;48.652;9.250;2022-09-13T07:23:00;7.32;;;2.05;;
10009;SDS011;5044;48.652;9.250;2022-09-13T07:25:27;4.07;;;1.90;;
10009;SDS011;5044;48.652;9.250;2022-09-13T07:27:54;6.90;;;1.77;;
10009;SDS011;5044;48.652;9.250;2022-09-13T07:30:42;3.58;;;2.00;;
10009;SDS011;5044;48.652;9.250;2022-09-13T07:35:58;3.28;;;1.73;;
10009;SDS011;5044;48.652;9.250;2022-09-13T07:38:38;2.63;;;1.50;;
10009;SDS011;5044;48.652;9.250;2022-09-13T07:41:10;3.72;;;1.65;;
10009;SDS011;5044;48.652;9.250;2022-09-13T07:43:38;5.18;;;1.77;;
10009;SDS011;5044;48.652;9.250;2022-09-13T07:46:06;2.35;;;1.83;;
10009;SDS011;5044;48.652;9.250;2022-09-13T07:48:34;3.10;;;1.45;;
10009;SDS011;5044;48.652;9.250;2022-09-13T07:51:05;7.57;;;2.00;;
10009;SDS011;5044;48.652;9.250;2022-09-13T07:53:33;2.33;;;1.45;;
10009;SDS011;5044;48.652;9.250;2022-09-13T07:56:02;10.05;;;1.90;;
10009;SDS011;5044;48.652;9.250;2022-09-13T07:58:31;2.30;;;1.60;;
10009;SDS011;5044;48.652;9.250;2022-09-13T08:00:59;2.00;;;1.55;;
10009;SDS011;5044;48.652;9.250;2022-09-13T08:03:30;3.75;;;1.67;;
10009;SDS011;5044;48.652;9.250;2022-09-13T08:05:57;1.40;;;1.20;;
10009;SDS011;5044;48.652;9.250;2022-09-13T08:08:25;8.35;;;1.50;;
10009;SDS011;5044;48.652;9.250;2022-09-13T08:10:52;1.90;;;1.42;;
10009;SDS011;5044;48.652;9.250;2022-09-13T08:13:20;2.45;;;1.50;;
10009;SDS011;5044;48.652;9.250;2022-09-13T08:15:47;2.50;;;1.40;;
10009;SDS011;5044;48.652;9.250;2022-09-13T08:18:14;4.00;;;1.13;;
10009;SDS011;5044;48.652;9.250;2022-09-13T08:20:41;2.15;;;1.17;;
10009;SDS011;5044;48.652;9.250;2022-09-13T08:23:08;2.20;;;1.48;;
10009;SDS011;5044;48.652;9.250;2022-09-13T08:25:38;2.30;;;1.35;;
10009;SDS011;5044;48.652;9.250;2022-09-13T08:28:07;2.03;;;1.40;;
10009;SDS011;5044;48.652;9.250;2022-09-13T08:30:40;1.15;;;1.00;;
10009;SDS011;5044;48.652;9.250;2022-09-13T08:33:09;1.20;;;1.08;;
10009;SDS011;5044;48.652;9.250;2022-09-13T08:35:37;2.58;;;1.35;;
10009;SDS011;5044;48.652;9.250;2022-09-13T08:38:05;4.60;;;1.20;;
10009;SDS011;5044;48.652;9.250;2022-09-13T08:40:37;2.38;;;1.73;;
10009;SDS011;5044;48.652;9.250;2022-09-13T08:43:11;2.92;;;1.08;;
10009;SDS011;5044;48.652;9.250;2022-09-13T08:45:48;1.65;;;1.10;;
10009;SDS011;5044;48.652;9.250;2022-09-13T08:48:17;2.35;;;1.20;;
10009;SDS011;5044;48.652;9.250;2022-09-13T08:50:49;5.35;;;1.45;;
10009;SDS011;5044;48.652;9.250;2022-09-13T08:53:19;2.00;;;1.20;;
10009;SDS011;5044;48.652;9.250;2022-09-13T08:55:56;2.78;;;1.30;;
10009;SDS011;5044;48.652;9.250;2022-09-13T08:58:43;1.95;;;1.02;;
10009;SDS011;5044;48.652;9.250;2022-09-13T09:01:24;5.32;;;1.15;;
10009;SDS011;5044;48.652;9.250;2022-09-13T09:04:00;3.45;;;1.45;;
10009;SDS011;5044;48.652;9.250;2022-09-13T09:06:32;1.42;;;0.95;;
10009;SDS011;5044;48.652;9.250;2022-09-13T09:09:02;3.22;;;1.27;;
10009;SDS011;5044;48.652;9.250;2022-09-13T09:11:35;2.72;;;1.20;;
10009;SDS011;5044;48.652;9.250;2022-09-13T09:14:07;2.05;;;1.17;;
10009;SDS011;5044;48.652;9.250;2022-09-13T09:16:41;1.27;;;0.75;;
10009;SDS011;5044;48.652;9.250;2022-09-13T09:19:16;1.83;;;1.08;;
10009;SDS011;5044;48.652;9.250;2022-09-13T09:21:48;2.35;;;1.02;;
10009;SDS011;5044;48.652;9.250;2022-09-13T09:24:17;1.02;;;0.93;;
10009;SDS011;5044;48.652;9.250;2022-09-13T09:26:48;4.25;;;1.17;;
10009;SDS011;5044;48.652;9.250;2022-09-13T09:29:19;5.05;;;1.05;;
10009;SDS011;5044;48.652;9.250;2022-09-13T09:31:54;1.50;;;1.00;;
10009;SDS011;5044;48.652;9.250;2022-09-13T09:34:35;3.35;;;1.50;;
10009;SDS011;5044;48.652;9.250;2022-09-13T09:37:14;1.20;;;0.80;;
10009;SDS011;5044;48.652;9.250;2022-09-13T09:39:45;2.15;;;0.93;;
10009;SDS011;5044;48.652;9.250;2022-09-13T09:42:14;1.23;;;0.90;;
10009;SDS011;5044;48.652;9.250;2022-09-13T09:44:44;1.98;;;0.95;;
10009;SDS011;5044;48.652;9.250;2022-09-13T09:47:14;2.00;;;1.05;;
10009;SDS011;5044;48.652;9.250;2022-09-13T09:49:45;1.15;;;1.05;;
10009;SDS011;5044;48.652;9.250;2022-09-13T09:52:32;3.03;;;1.00;;
10009;SDS011;5044;48.652;9.250;2022-09-13T09:55:09;3.35;;;1.13;;
10009;SDS011;5044;48.652;9.250;2022-09-13T09:57:54;1.58;;;1.25;;
10009;SDS011;5044;48.652;9.250;2022-09-13T10:00:24;2.08;;;1.05;;
10009;SDS011;5044;48.652;9.250;2022-09-13T10:02:54;5.13;;;1.40;;
10009;SDS011;5044;48.652;9.250;2022-09-13T10:05:23;2.45;;;1.20;;
10009;SDS011;5044;48.652;9.250;2022-09-13T10:07:53;1.95;;;1.30;;
10009;SDS011;5044;48.652;9.250;2022-09-13T10:10:23;2.85;;;0.90;;
10009;SDS011;5044;48.652;9.250;2022-09-13T10:12:54;1.57;;;1.27;;
10009;SDS011;5044;48.652;9.250;2022-09-13T10:15:24;1.27;;;0.88;;
10009;SDS011;5044;48.652;9.250;2022-09-13T10:18:12;1.48;;;1.10;;
10009;SDS011;5044;48.652;9.250;2022-09-13T10:20:41;3.55;;;1.08;;
10009;SDS011;5044;48.652;9.250;2022-09-13T10:23:18;1.15;;;1.05;;
10009;SDS011;5044;48.652;9.250;2022-09-13T10:26:06;2.70;;;0.93;;
10009;SDS011;5044;48.652;9.250;2022-09-13T10:28:42;1.00;;;0.60;;
10009;SDS011;5044;48.652;9.250;2022-09-13T10:31:12;5.25;;;0.80;;
10009;SDS011;5044;48.652;9.250;2022-09-13T10:33:42;1.80;;;0.88;;
10009;SDS011;5044;48.652;9.250;2022-09-13T10:36:18;1.17;;;0.80;;
10009;SDS011;5044;48.652;9.250;2022-09-13T10:38:49;3.47;;;0.80;;
10009;SDS011;5044;48.652;9.250;2022-09-13T10:41:23;1.67;;;1.00;;
10009;SDS011;5044;48.652;9.250;2022-09-13T10:43:56;1.00;;;0.60;;
10009;SDS011;5044;48.652;9.250;2022-09-13T10:46:25;2.72;;;0.85;;
10009;SDS011;5044;48.652;9.250;2022-09-13T10:48:55;1.52;;;0.70;;
10009;SDS011;5044;48.652;9.250;2022-09-13T10:51:28;1.08;;;0.60;;
10009;SDS011;5044;48.652;9.250;2022-09-13T10:54:06;3.63;;;0.73;;
10009;SDS011;5044;48.652;9.250;2022-09-13T10:56:45;1.55;;;0.50;;
10009;SDS011;5044;48.652;9.250;2022-09-13T10:59:18;1.42;;;0.60;;
10009;SDS011;5044;48.652;9.250;2022-09-13T11:01:50;2.92;;;0.63;;
10009;SDS011;5044;48.652;9.250;2022-09-13T11:04:44;1.60;;;0.90;;
10009;SDS011;5044;48.652;9.250;2022-09-13T11:07:39;2.92;;;0.80;;
10009;SDS011;5044;48.652;9.250;2022-09-13T11:10:42;0.80;;;0.60;;
10009;SDS011;5044;48.652;9.250;2022-09-13T11:13:22;3.22;;;0.85;;
10009;SDS011;5044;48.652;9.250;2022-09-13T11:15:56;1.02;;;0.70;;
10009;SDS011;5044;48.652;9.250;2022-09-13T11:18:40;0.68;;;0.52;;
10009;SDS011;5044;48.652;9.250;2022-09-13T11:21:30;3.03;;;0.70;;
10009;SDS011;5044;48.652;9.250;2022-09-13T11:24:12;2.47;;;0.80;;
10009;SDS011;5044;48.652;9.250;2022-09-13T11:26:57;2.67;;;0.75;;
10009;SDS011;5044;48.652;9.250;2022-09-13T11:29:32;3.17;;;0.60;;
10009;SDS011;5044;48.652;9.250;2022-09-13T11:32:14;1.98;;;0.77;;
10009;SDS011;5044;48.652;9.250;2022-09-13T11:34:57;1.00;;;0.80;;
10009;SDS011;5044;48.652;9.250;2022-09-13T11:37:42;1.00;;;0.65;;
10009;SDS011;5044;48.652;9.250;2022-09-13T11:40:24;1.88;;;0.60;;
10009;SDS011;5044;48.652;9.250;2022-09-13T11:43:01;1.48;;;0.70;;
10009;SDS011;5044;48.652;9.250;2022-09-13T11:45:38;0.88;;;0.40;;
10009;SDS011;5044;48.652;9.250;2022-09-13T11:51:20;1.10;;;0.50;;
10009;SDS011;5044;48.652;9.250;2022-09-13T11:54:00;0.75;;;0.40;;
10009;SDS011;5044;48.652;9.250;2022-09-13T11:56:41;0.45;;;0.43;;
10009;SDS011;5044;48.652;9.250;2022-09-13T11:59:15;0.43;;;0.43;;
10009;SDS011;5044;48.652;9.250;2022-09-13T12:01:53;2.42;;;0.38;;
10009;SDS011;5044;48.652;9.250;2022-09-13T12:04:26;1.55;;;0.30;;
10009;SDS011;5044;48.652;9.250;2022-09-13T12:06:56;1.95;;;0.40;;
10009;SDS011;5044;48.652;9.250;2022-09-13T12:09:27;0.77;;;0.50;;
10009;SDS011;5044;48.652;9.250;2022-09-13T12:11:59;0.60;;;0.45;;
10009;SDS011;5044;48.652;9.250;2022-09-13T12:14:41;0.85;;;0.57;;
10009;SDS011;5044;48.652;9.250;2022-09-13T12:17:15;0.50;;;0.40;;
10009;SDS011;5044;48.652;9.250;2022-09-13T12:19:51;6.75;;;0.70;;
10009;SDS011;5044;48.652;9.250;2022-09-13T12:22:21;0.60;;;0.50;;
10009;SDS011;5044;48.652;9.250;2022-09-13T12:24:50;0.80;;;0.50;;
10009;SDS011;5044;48.652;9.250;2022-09-13T12:27:21;0.40;;;0.40;;
10009;SDS011;5044;48.652;9.250;2022-09-13T12:29:53;4.63;;;0.93;;
10009;SDS011;5044;48.652;9.250;2022-09-13T12:32:22;2.47;;;0.30;;
10009;SDS011;5044;48.652;9.250;2022-09-13T12:34:53;0.38;;;0.38;;
10009;SDS011;5044;48.652;9.250;2022-09-13T12:37:31;5.32;;;0.88;;
10009;SDS011;5044;48.652;9.250;2022-09-13T12:40:15;7.65;;;0.68;;
10009;SDS011;5044;48.652;9.250;2022-09-13T12:43:10;3.90;;;0.50;;
10009;SDS011;5044;48.652;9.250;2022-09-13T12:46:06;1.25;;;0.50;;
10009;SDS011;5044;48.652;9.250;2022-09-13T12:48:56;1.90;;;0.90;;
10009;SDS011;5044;48.652;9.250;2022-09-13T12:51:46;1.95;;;0.40;;
10009;SDS011;5044;48.652;9.250;2022-09-13T12:57:33;2.85;;;0.40;;
10009;SDS011;5044;48.652;9.250;2022-09-13T13:00:10;0.82;;;0.60;;
10009;SDS011;5044;48.652;9.250;2022-09-13T13:02:44;0.70;;;0.43;;
10009;SDS011;5044;48.652;9.250;2022-09-13T13:05:19;0.40;;;0.40;;
10009;SDS011;5044;48.652;9.250;2022-09-13T13:07:53;0.52;;;0.43;;
10009;SDS011;5044;48.652;9.250;2022-09-13T13:10:23;0.50;;;0.45;;
10009;SDS011;5044;48.652;9.250;2022-09-13T13:12:54;0.70;;;0.40;;
10009;SDS011;5044;48.652;9.250;2022-09-13T13:18:23;2.80;;;0.40;;
10009;SDS011;5044;48.652;9.250;2022-09-13T13:23:32;1.85;;;0.30;;
10009;SDS011;5044;48.652;9.250;2022-09-13T13:26:02;0.43;;;0.40;;
10009;SDS011;5044;48.652;9.250;2022-09-13T13:28:48;0.52;;;0.50;;
10009;SDS011;5044;48.652;9.250;2022-09-13T13:31:32;3.28;;;0.50;;
10009;SDS011;5044;48.652;9.250;2022-09-13T13:36:57;0.45;;;0.30;;
10009;SDS011;5044;48.652;9.250;2022-09-13T13:39:35;1.52;;;0.30;;
10009;SDS011;5044;48.652;9.250;2022-09-13T13:42:12;2.55;;;0.47;;
10009;SDS011;5044;48.652;9.250;2022-09-13T13:50:34;4.22;;;0.50;;
10009;SDS011;5044;48.652;9.250;2022-09-13T13:53:45;0.82;;;0.40;;
10009;SDS011;5044;48.652;9.250;2022-09-13T13:56:27;0.30;;;0.30;;
10009;SDS011;5044;48.652;9.250;2022-09-13T13:58:59;1.38;;;0.50;;
10009;SDS011;5044;48.652;9.250;2022-09-13T14:01:35;0.45;;;0.45;;
10009;SDS011;5044;48.652;9.250;2022-09-13T14:07:03;0.45;;;0.30;;
10009;SDS011;5044;48.652;9.250;2022-09-13T14:09:46;1.60;;;0.47;;
10009;SDS011;5044;48.652;9.250;2022-09-13T14:12:31;0.32;;;0.32;;
10009;SDS011;5044;48.652;9.250;2022-09-13T14:15:12;0.30;;;0.30;;
10009;SDS011;5044;48.652;9.250;2022-09-13T14:18:10;0.30;;;0.30;;
10009;SDS011;5044;48.652;9.250;2022-09-13T14:21:16;0.85;;;0.47;;
10009;SDS011;5044;48.652;9.250;2022-09-13T14:23:45;0.95;;;0.40;;
10009;SDS011;5044;48.652;9.250;2022-09-13T14:26:12;2.15;;;0.50;;
10009;SDS011;5044;48.652;9.250;2022-09-13T14:28:41;1.67;;;0.60;;
10009;SDS011;5044;48.652;9.250;2022-09-13T14:31:13;2.67;;;0.50;;
10009;SDS011;5044;48.652;9.250;2022-09-13T14:33:44;0.50;;;0.50;;
10009;SDS011;5044;48.652;9.250;2022-09-13T14:36:15;0.80;;;0.40;;
10009;SDS011;5044;48.652;9.250;2022-09-13T14:38:48;4.15;;;1.38;;
10009;SDS011;5044;48.652;9.250;2022-09-13T14:41:16;2.58;;;1.20;;
10009;SDS011;5044;48.652;9.250;2022-09-13T14:43:46;0.77;;;0.32;;
10009;SDS011;5044;48.652;9.250;2022-09-13T14:46:15;0.45;;;0.40;;
10009;SDS011;5044;48.652;9.250;2022-09-13T14:48:48;0.65;;;0.30;;
10009;SDS011;5044;48.652;9.250;2022-09-13T14:51:19;0.60;;;0.30;;
10009;SDS011;5044;48.652;9.250;2022-09-13T14:53:50;3.45;;;0.50;;
10009;SDS011;5044;48.652;9.250;2022-09-13T14:56:22;1.73;;;0.80;;
10009;SDS011;5044;48.652;9.250;2022-09-13T14:58:58;0.80;;;0.43;;
10009;SDS011;5044;48.652;9.250;2022-09-13T15:01:27;0.70;;;0.43;;
10009;SDS011;5044;48.652;9.250;2022-09-13T15:03:57;0.52;;;0.52;;
10009;SDS011;5044;48.652;9.250;2022-09-13T15:06:26;1.88;;;0.30;;
10009;SDS011;5044;48.652;9.250;2022-09-13T15:08:55;0.50;;;0.40;;
10009;SDS011;5044;48.652;9.250;2022-09-13T15:11:29;0.40;;;0.40;;
10009;SDS011;5044;48.652;9.250;2022-09-13T15:14:08;2.30;;;0.45;;
10009;SDS011;5044;48.652;9.250;2022-09-13T15:16:50;4.05;;;0.55;;
10009;SDS011;5044;48.652;9.250;2022-09-13T15:19:34;0.57;;;0.50;;
10009;SDS011;5044;48.652;9.250;2022-09-13T15:22:03;1.98;;;0.50;;
10009;SDS011;5044;48.652;9.250;2022-09-13T15:24:40;2.38;;;0.63;;
10009;SDS011;5044;48.652;9.250;2022-09-13T15:27:15;1.33;;;0.55;;
10009;SDS011;5044;48.652;9.250;2022-09-13T15:29:48;2.17;;;0.60;;
10009;SDS011;5044;48.652;9.250;2022-09-13T15:32:20;1.02;;;0.50;;
10009;SDS011;5044;48.652;9.250;2022-09-13T15:34:48;1.70;;;0.70;;
10009;SDS011;5044;48.652;9.250;2022-09-13T15:37:16;0.73;;;0.50;;
10009;SDS011;5044;48.652;9.250;2022-09-13T15:39:48;3.10;;;0.80;;
10009;SDS011;5044;48.652;9.250;2022-09-13T15:42:30;1.10;;;0.60;;
10009;SDS011;5044;48.652;9.250;2022-09-13T15:44:58;0.70;;;0.50;;
10009;SDS011;5044;48.652;9.250;2022-09-13T15:47:25;3.40;;;0.52;;
10009;SDS011;5044;48.652;9.250;2022-09-13T15:49:52;1.27;;;0.50;;
10009;SDS011;5044;48.652;9.250;2022-09-13T15:52:19;0.98;;;0.73;;
10009;SDS011;5044;48.652;9.250;2022-09-13T15:54:47;1.63;;;0.70;;
10009;SDS011;5044;48.652;9.250;2022-09-13T15:57:17;0.77;;;0.57;;
10009;SDS011;5044;48.652;9.250;2022-09-13T15:59:46;3.90;;;0.50;;
10009;SDS011;5044;48.652;9.250;2022-09-13T16:02:19;1.83;;;0.50;;
10009;SDS011;5044;48.652;9.250;2022-09-13T16:04:47;3.83;;;0.70;;
10009;SDS011;5044;48.652;9.250;2022-09-13T16:07:15;2.85;;;0.68;;
10009;SDS011;5044;48.652;9.250;2022-09-13T16:09:43;2.50;;;0.70;;
10009;SDS011;5044;48.652;9.250;2022-09-13T16:12:10;5.25;;;0.55;;
10009;SDS011;5044;48.652;9.250;2022-09-13T16:14:37;3.55;;;0.65;;
10009;SDS011;5044;48.652;9.250;2022-09-13T16:17:04;6.38;;;1.30;;
10009;SDS011;5044;48.652;9.250;2022-09-13T16:19:37;0.50;;;0.50;;
10009;SDS011;5044;48.652;9.250;2022-09-13T16:22:05;4.95;;;0.65;;
10009;SDS011;5044;48.652;9.250;2022-09-13T16:24:32;1.33;;;0.60;;
10009;SDS011;5044;48.652;9.250;2022-09-13T16:27:00;4.80;;;0.77;;
10009;SDS011;5044;48.652;9.250;2022-09-13T16:29:26;1.88;;;0.60;;